createdAt,value
2019-03-12T00:00:15.229Z,5.70
2019-03-12T00:02:43.892Z,6.63
2019-03-12T00:05:12.437Z,6.23
2019-03-12T00:07:40.895Z,6.47
2019-03-12T00:10:09.898Z,7.23
2019-03-12T00:12:38.429Z,7.20
2019-03-12T00:15:07.904Z,5.40
2019-03-12T00:17:36.488Z,7.00
2019-03-12T00:20:06.794Z,7.13
2019-03-12T00:22:35.249Z,6.63
2019-03-12T00:25:03.930Z,5.90
2019-03-12T00:27:32.386Z,6.13
2019-03-12T00:30:00.843Z,7.57
2019-03-12T00:32:29.404Z,7.53
2019-03-12T00:34:57.884Z,6.90
2019-03-12T00:37:26.343Z,7.77
2019-03-12T00:39:54.950Z,6.07
2019-03-12T00:42:23.416Z,6.43
2019-03-12T00:44:52.961Z,6.03
2019-03-12T00:47:21.642Z,6.27
2019-03-12T00:49:50.298Z,7.60
2019-03-12T00:52:18.767Z,7.77
2019-03-12T00:54:47.304Z,8.07
2019-03-12T00:57:15.928Z,6.97
2019-03-12T00:59:44.524Z,7.07
2019-03-12T01:02:13.176Z,7.47
2019-03-12T01:04:41.754Z,6.97
2019-03-12T01:07:10.205Z,6.07
2019-03-12T01:09:38.819Z,7.27
2019-03-12T01:12:07.275Z,7.30
2019-03-12T01:14:35.736Z,7.37
2019-03-12T01:17:04.599Z,7.30
2019-03-12T01:19:34.040Z,6.60
2019-03-12T01:22:02.501Z,6.93
2019-03-12T01:24:31.098Z,6.33
2019-03-12T01:26:59.554Z,7.00
2019-03-12T01:29:28.075Z,7.40
2019-03-12T01:31:56.734Z,7.10
2019-03-12T01:34:25.194Z,6.13
2019-03-12T01:36:53.651Z,6.77
2019-03-12T01:39:22.302Z,7.20
2019-03-12T01:41:50.757Z,5.43
2019-03-12T01:44:20.234Z,6.13
2019-03-12T01:46:48.823Z,7.70
2019-03-12T01:49:17.314Z,6.70
2019-03-12T01:51:45.834Z,6.17
2019-03-12T01:54:14.441Z,7.13
2019-03-12T01:56:42.904Z,6.93
2019-03-12T01:59:11.350Z,7.20
2019-03-12T02:01:39.903Z,7.93
2019-03-12T02:04:08.355Z,9.33
2019-03-12T02:06:36.806Z,6.47
2019-03-12T02:09:07.605Z,6.57
2019-03-12T02:11:37.070Z,5.83
2019-03-12T02:14:20.973Z,6.97
2019-03-12T02:16:49.452Z,6.47
2019-03-12T02:19:17.890Z,6.20
2019-03-12T02:21:46.433Z,7.57
2019-03-12T02:24:16.950Z,5.77
2019-03-12T02:26:45.539Z,7.40
2019-03-12T02:29:14.222Z,6.20
2019-03-12T02:31:42.745Z,5.20
2019-03-12T02:34:11.506Z,6.83
2019-03-12T02:36:40.061Z,7.20
2019-03-12T02:39:09.463Z,7.67
2019-03-12T02:41:38.015Z,8.98
2019-03-12T02:44:06.615Z,7.60
2019-03-12T02:46:36.014Z,6.67
2019-03-12T02:49:09.188Z,8.07
2019-03-12T02:51:35.062Z,6.15
2019-03-12T02:54:03.611Z,9.27
2019-03-12T02:56:32.188Z,8.63
2019-03-12T02:59:00.719Z,7.90
2019-03-12T03:01:29.186Z,7.87
2019-03-12T03:03:58.825Z,8.23
2019-03-12T03:06:28.917Z,9.37
2019-03-12T03:08:57.400Z,8.33
2019-03-12T03:11:25.956Z,9.90
2019-03-12T03:13:54.413Z,8.60
2019-03-12T03:16:24.436Z,9.13
2019-03-12T03:18:53.246Z,8.43
2019-03-12T03:21:21.714Z,8.37
2019-03-12T03:23:50.259Z,9.00
2019-03-12T03:26:18.923Z,7.93
2019-03-12T03:28:47.384Z,8.67
2019-03-12T03:31:15.835Z,8.17
2019-03-12T03:33:44.398Z,6.97
2019-03-12T03:36:12.926Z,7.40
2019-03-12T03:38:41.394Z,8.63
2019-03-12T03:41:10.055Z,6.28
2019-03-12T03:43:38.598Z,7.17
2019-03-12T03:46:07.142Z,8.40
2019-03-12T03:48:36.418Z,8.27
2019-03-12T03:51:04.956Z,9.77
2019-03-12T03:53:33.445Z,12.77
2019-03-12T03:56:02.076Z,10.60
2019-03-12T03:58:30.549Z,14.30
2019-03-12T04:00:59.024Z,15.27
2019-03-12T04:03:27.671Z,10.30
2019-03-12T04:05:56.176Z,11.43
2019-03-12T04:08:24.649Z,7.30
2019-03-12T04:10:53.174Z,5.77
2019-03-12T04:13:21.647Z,7.33
2019-03-12T04:15:50.471Z,7.10
2019-03-12T04:18:19.051Z,7.73
2019-03-12T04:20:47.510Z,3.77
2019-03-12T04:23:16.410Z,5.97
2019-03-12T04:25:45.177Z,7.07
2019-03-12T04:28:13.652Z,7.03
2019-03-12T04:30:44.010Z,5.93
2019-03-12T04:33:41.079Z,4.73
2019-03-12T04:36:09.613Z,8.13
2019-03-12T04:38:38.096Z,6.97
2019-03-12T04:41:06.746Z,6.97
2019-03-12T04:43:35.207Z,7.87
2019-03-12T04:46:03.674Z,7.80
2019-03-12T04:48:32.307Z,7.70
2019-03-12T04:51:00.778Z,8.20
2019-03-12T04:53:29.294Z,6.33
2019-03-12T04:55:57.964Z,8.33
2019-03-12T04:58:26.426Z,5.83
2019-03-12T05:00:54.884Z,6.37
2019-03-12T05:03:23.542Z,5.10
2019-03-12T05:05:51.999Z,6.33
2019-03-12T05:08:20.472Z,7.13
2019-03-12T05:10:49.088Z,6.90
2019-03-12T05:13:17.641Z,7.03
2019-03-12T05:15:46.110Z,6.47
2019-03-12T05:18:16.454Z,6.60
2019-03-12T05:20:45.027Z,5.70
2019-03-12T05:23:13.592Z,6.20
2019-03-12T05:25:42.148Z,4.37
2019-03-12T05:28:10.676Z,6.50
2019-03-12T05:30:39.219Z,5.57
2019-03-12T05:33:07.818Z,5.77
2019-03-12T05:35:36.298Z,6.60
2019-03-12T05:38:04.729Z,5.13
2019-03-12T05:40:33.280Z,5.40
2019-03-12T05:43:01.736Z,5.30
2019-03-12T05:45:30.221Z,8.20
2019-03-12T05:47:58.775Z,5.90
2019-03-12T05:50:27.214Z,5.87
2019-03-12T05:55:53.887Z,6.17
2019-03-12T05:58:22.344Z,6.53
2019-03-12T06:00:50.973Z,6.63
2019-03-12T06:03:19.632Z,6.20
2019-03-12T06:05:48.187Z,6.10
2019-03-12T06:08:16.648Z,5.27
2019-03-12T06:10:45.173Z,6.33
2019-03-12T06:13:13.643Z,6.57
2019-03-12T06:15:42.092Z,6.20
2019-03-12T06:18:10.664Z,6.30
2019-03-12T06:20:39.129Z,5.83
2019-03-12T06:23:08.655Z,6.67
2019-03-12T06:25:37.182Z,7.50
2019-03-12T06:28:06.670Z,5.83
2019-03-12T06:30:36.760Z,5.60
2019-03-12T06:33:06.976Z,6.43
2019-03-12T06:35:37.089Z,4.83
2019-03-12T06:38:07.175Z,5.40
2019-03-12T06:40:41.139Z,4.73
2019-03-12T06:43:11.284Z,5.80
2019-03-12T06:45:41.449Z,4.90
2019-03-12T06:48:12.236Z,4.70
2019-03-12T06:50:54.237Z,5.25
2019-03-12T06:53:24.578Z,3.33
2019-03-12T06:55:54.693Z,4.87
2019-03-12T06:58:34.570Z,4.33
2019-03-12T07:01:13.593Z,5.93
2019-03-12T07:04:00.290Z,3.37
2019-03-12T07:06:33.150Z,3.77
2019-03-12T07:09:03.408Z,4.93
2019-03-12T07:11:36.443Z,5.43
2019-03-12T07:16:54.427Z,3.73
2019-03-12T07:19:30.314Z,3.80
2019-03-12T07:22:00.488Z,3.43
2019-03-12T07:24:36.322Z,3.40
2019-03-12T07:27:15.761Z,5.53
2019-03-12T07:30:01.702Z,5.00
2019-03-12T07:32:36.481Z,4.17
2019-03-12T07:35:08.531Z,4.40
2019-03-12T07:37:48.494Z,3.33
2019-03-12T07:40:21.375Z,4.35
2019-03-12T07:42:51.584Z,4.63
2019-03-12T07:45:30.473Z,3.30
2019-03-12T07:48:03.449Z,3.97
2019-03-12T07:50:42.312Z,2.50
2019-03-12T07:53:17.900Z,2.20
2019-03-12T07:56:04.269Z,2.60
2019-03-12T07:58:37.190Z,3.47
2019-03-12T08:01:07.361Z,2.43
2019-03-12T08:03:49.602Z,3.17
2019-03-12T08:06:19.707Z,4.30
2019-03-12T08:08:56.682Z,2.87
2019-03-12T08:11:35.677Z,3.23
2019-03-12T08:14:14.977Z,2.70
2019-03-12T08:17:03.303Z,2.57
2019-03-12T08:19:39.146Z,3.13
2019-03-12T08:22:09.245Z,4.57
2019-03-12T08:24:42.901Z,4.87
2019-03-12T08:27:13.384Z,2.73
2019-03-12T08:29:52.783Z,2.73
2019-03-12T08:32:32.501Z,2.30
2019-03-12T08:35:11.398Z,2.53
2019-03-12T08:37:45.305Z,3.23
2019-03-12T08:40:20.871Z,3.87
2019-03-12T08:42:55.008Z,2.67
2019-03-12T08:45:30.992Z,3.43
2019-03-12T08:48:01.252Z,2.67
2019-03-12T08:50:40.074Z,3.65
2019-03-12T08:53:28.366Z,7.07
2019-03-12T08:55:58.551Z,3.57
2019-03-12T08:58:46.708Z,3.63
2019-03-12T09:01:22.575Z,4.53
2019-03-12T09:03:58.685Z,4.67
2019-03-12T09:06:43.965Z,3.20
2019-03-12T09:09:29.094Z,6.27
2019-03-12T09:12:06.338Z,5.57
2019-03-12T09:14:53.307Z,5.17
2019-03-12T09:17:23.394Z,4.40
2019-03-12T09:20:09.778Z,3.70
2019-03-12T09:22:56.224Z,3.23
2019-03-12T09:25:42.606Z,5.57
2019-03-12T09:28:28.643Z,3.10
2019-03-12T09:30:58.935Z,3.93
2019-03-12T09:36:26.100Z,3.93
2019-03-12T09:39:01.764Z,3.37
2019-03-12T09:41:44.779Z,3.40
2019-03-12T09:44:26.834Z,3.50
2019-03-12T09:46:57.026Z,2.30
2019-03-12T09:49:30.089Z,3.57
2019-03-12T09:52:00.247Z,4.13
2019-03-12T09:54:48.475Z,2.40
2019-03-12T09:57:18.707Z,2.83
2019-03-12T09:59:51.669Z,4.07
2019-03-12T10:02:38.216Z,3.30
2019-03-12T10:05:18.314Z,3.80
2019-03-12T10:07:54.452Z,4.23
2019-03-12T10:10:27.515Z,3.60
2019-03-12T10:13:06.651Z,3.00
2019-03-12T10:15:39.518Z,3.93
2019-03-12T10:18:21.865Z,3.37
2019-03-12T10:20:57.948Z,2.50
2019-03-12T10:23:30.608Z,3.33
2019-03-12T10:26:03.408Z,3.93
2019-03-12T10:28:39.706Z,3.83
2019-03-12T10:31:18.703Z,3.87
2019-03-12T10:33:49.797Z,4.10
2019-03-12T10:36:34.949Z,4.60
2019-03-12T10:39:42.530Z,3.30
2019-03-12T10:42:18.370Z,3.30
2019-03-12T10:44:51.615Z,3.90
2019-03-12T10:47:21.795Z,4.10
2019-03-12T10:49:51.257Z,4.13
2019-03-12T10:52:19.913Z,4.30
2019-03-12T10:54:48.433Z,3.43
2019-03-12T10:57:16.870Z,4.20
2019-03-12T10:59:48.328Z,3.57
2019-03-12T11:02:16.832Z,4.87
2019-03-12T11:04:45.284Z,3.03
2019-03-12T11:07:16.676Z,5.10
2019-03-12T11:09:43.980Z,2.70
2019-03-12T11:12:12.619Z,4.70
2019-03-12T11:14:41.181Z,4.10
2019-03-12T11:17:09.634Z,4.00
2019-03-12T11:19:39.292Z,3.90
2019-03-12T11:22:07.821Z,3.60
2019-03-12T11:24:36.333Z,4.63
2019-03-12T11:27:05.138Z,5.00
2019-03-12T11:29:33.573Z,3.37
2019-03-12T11:32:02.192Z,2.60
2019-03-12T11:34:30.728Z,3.67
2019-03-12T11:36:59.170Z,4.50
2019-03-12T11:39:28.612Z,3.70
2019-03-12T11:41:57.207Z,3.83
2019-03-12T11:44:25.763Z,3.87
2019-03-12T11:46:54.236Z,3.23
2019-03-12T11:49:22.778Z,4.13
2019-03-12T11:51:51.293Z,5.00
2019-03-12T11:54:19.874Z,6.43
2019-03-12T11:56:48.629Z,4.87
2019-03-12T11:59:17.066Z,5.03
2019-03-12T12:01:45.589Z,2.97
2019-03-12T12:04:14.299Z,5.73
2019-03-12T12:06:43.695Z,5.70
2019-03-12T12:09:12.552Z,6.03
2019-03-12T12:11:41.076Z,6.20
2019-03-12T12:14:09.607Z,5.53
2019-03-12T12:16:38.175Z,6.07
2019-03-12T12:19:06.690Z,3.97
2019-03-12T12:21:35.129Z,4.97
2019-03-12T12:24:03.599Z,5.23
2019-03-12T12:26:32.329Z,3.80
2019-03-12T12:29:00.781Z,2.90
2019-03-12T12:31:29.296Z,4.80
2019-03-12T12:33:57.945Z,4.83
2019-03-12T12:36:26.398Z,4.70
2019-03-12T12:38:54.859Z,5.07
2019-03-12T12:41:23.412Z,4.60
2019-03-12T12:43:51.961Z,4.90
2019-03-12T12:46:20.404Z,4.50
2019-03-12T12:48:49.087Z,4.83
2019-03-12T12:51:18.518Z,5.10
2019-03-12T12:53:46.961Z,5.00
2019-03-12T12:56:15.561Z,4.93
2019-03-12T12:58:44.000Z,5.13
2019-03-12T13:01:13.419Z,5.00
2019-03-12T13:03:42.073Z,4.70
2019-03-12T13:06:10.528Z,4.70
2019-03-12T13:08:38.997Z,4.73
2019-03-12T13:11:07.506Z,4.33
2019-03-12T13:13:35.943Z,4.90
2019-03-12T13:16:04.549Z,4.47
2019-03-12T13:18:33.250Z,4.90
2019-03-12T13:21:01.736Z,4.60
2019-03-12T13:23:30.187Z,5.10
2019-03-12T13:25:58.901Z,4.90
2019-03-12T13:28:27.372Z,4.70
2019-03-12T13:30:55.885Z,5.10
2019-03-12T13:33:24.495Z,5.47
2019-03-12T13:35:52.918Z,4.70
2019-03-12T13:38:21.377Z,4.53
2019-03-12T13:40:50.001Z,5.40
2019-03-12T13:43:18.717Z,4.53
2019-03-12T13:45:47.214Z,4.67
2019-03-12T13:48:16.550Z,5.37
2019-03-12T13:50:45.196Z,5.57
2019-03-12T13:53:14.732Z,5.23
2019-03-12T13:55:43.283Z,4.70
2019-03-12T13:58:11.725Z,4.80
2019-03-12T14:00:40.368Z,5.20
2019-03-12T14:03:08.802Z,5.00
2019-03-12T14:05:37.443Z,5.43
2019-03-12T14:08:05.944Z,4.57
2019-03-12T14:10:34.397Z,5.60
2019-03-12T14:13:02.917Z,5.40
2019-03-12T14:15:36.003Z,5.40
2019-03-12T14:18:04.872Z,5.00
2019-03-12T14:20:41.761Z,5.27
2019-03-12T14:23:22.146Z,5.33
2019-03-12T14:25:51.301Z,5.13
2019-03-12T14:28:19.821Z,5.43
2019-03-12T14:30:48.345Z,4.60
2019-03-12T14:33:16.989Z,5.57
2019-03-12T14:35:51.311Z,3.93
2019-03-12T14:38:16.296Z,3.30
2019-03-12T14:40:44.902Z,3.70
2019-03-12T14:43:14.405Z,3.13
2019-03-12T14:45:51.278Z,4.23
2019-03-12T14:48:49.130Z,3.57
2019-03-12T14:51:32.573Z,3.70
2019-03-12T14:54:09.233Z,3.23
2019-03-12T14:56:37.892Z,3.27
2019-03-12T14:59:06.603Z,2.70
2019-03-12T15:01:36.033Z,3.20
2019-03-12T15:04:05.323Z,3.33
2019-03-12T15:06:33.851Z,3.27
2019-03-12T15:09:02.426Z,2.90
2019-03-12T15:11:30.962Z,2.80
2019-03-12T15:13:59.414Z,2.87
2019-03-12T15:16:27.682Z,2.47
2019-03-12T15:18:56.247Z,2.90
2019-03-12T15:21:24.689Z,2.73
2019-03-12T15:23:53.131Z,2.60
2019-03-12T15:26:21.672Z,2.67
2019-03-12T15:28:50.310Z,2.87
2019-03-12T15:31:18.739Z,2.67
2019-03-12T15:33:47.420Z,2.03
2019-03-12T15:36:15.853Z,2.47
2019-03-12T15:38:44.354Z,2.47
2019-03-12T15:41:13.031Z,3.10
2019-03-12T15:43:41.470Z,2.67
2019-03-12T15:46:09.934Z,2.17
2019-03-12T15:48:38.476Z,2.13
2019-03-12T15:51:07.047Z,2.13
2019-03-12T15:53:35.486Z,2.13
2019-03-12T15:56:04.553Z,2.50
2019-03-12T15:58:34.261Z,2.43
2019-03-12T16:01:03.048Z,5.70
2019-03-12T16:03:31.713Z,5.40
2019-03-12T16:06:00.214Z,3.50
2019-03-12T16:08:28.696Z,3.13
2019-03-12T16:10:58.631Z,2.87
2019-03-12T16:13:27.249Z,3.80
2019-03-12T16:15:55.689Z,2.97
2019-03-12T16:18:25.575Z,4.33
2019-03-12T16:20:54.061Z,2.97
2019-03-12T16:23:22.574Z,3.23
2019-03-12T16:25:51.197Z,3.87
2019-03-12T16:28:19.709Z,4.80
2019-03-12T16:30:48.138Z,4.37
2019-03-12T16:33:16.858Z,4.80
2019-03-12T16:35:45.409Z,4.37
2019-03-12T16:38:13.923Z,4.50
2019-03-12T16:40:42.626Z,30.00
2019-03-12T16:43:11.078Z,22.33
2019-03-12T16:45:39.539Z,12.77
2019-03-12T16:48:08.248Z,8.13
2019-03-12T16:50:38.333Z,10.00
2019-03-12T16:53:06.856Z,16.13
2019-03-12T16:55:35.375Z,19.43
2019-03-12T16:58:03.815Z,21.57
2019-03-12T17:00:32.620Z,23.20
2019-03-12T17:03:01.163Z,23.37
2019-03-12T17:05:29.682Z,23.33
2019-03-12T17:07:58.201Z,25.50
2019-03-12T17:10:26.955Z,32.73
2019-03-12T17:12:55.471Z,33.63
2019-03-12T17:15:26.043Z,36.00
2019-03-12T17:17:54.576Z,35.33
2019-03-12T17:20:24.064Z,31.10
2019-03-12T17:22:52.587Z,28.60
2019-03-12T17:25:21.071Z,22.90
2019-03-12T17:27:51.717Z,23.60
2019-03-12T17:30:24.842Z,23.07
2019-03-12T17:32:53.352Z,20.07
2019-03-12T17:35:33.699Z,20.20
2019-03-12T17:38:02.129Z,19.37
2019-03-12T17:40:30.838Z,20.03
2019-03-12T17:42:59.510Z,22.70
2019-03-12T17:45:28.096Z,26.60
2019-03-12T17:47:56.622Z,23.03
2019-03-12T17:50:25.227Z,20.63
2019-03-12T17:52:53.795Z,17.97
2019-03-12T17:55:22.244Z,16.80
2019-03-12T17:57:51.255Z,17.77
2019-03-12T18:00:23.668Z,17.53
2019-03-12T18:02:52.194Z,18.13
2019-03-12T18:05:20.883Z,18.73
2019-03-12T18:07:49.587Z,20.67
2019-03-12T18:10:18.836Z,21.77
2019-03-12T18:12:47.599Z,25.70
2019-03-12T18:15:20.087Z,27.87
2019-03-12T18:17:49.104Z,28.07
2019-03-12T18:20:21.575Z,22.77
2019-03-12T18:22:50.102Z,18.77
2019-03-12T18:25:33.489Z,19.87
2019-03-12T18:28:02.033Z,17.27
2019-03-12T18:30:30.721Z,15.83
2019-03-12T18:32:59.341Z,17.17
2019-03-12T18:35:27.866Z,24.77
2019-03-12T18:37:56.300Z,32.60
2019-03-12T18:40:26.280Z,29.00
2019-03-12T18:42:54.969Z,28.87
2019-03-12T18:45:24.772Z,22.77
2019-03-12T18:47:53.379Z,20.10
2019-03-12T18:50:22.831Z,20.13
2019-03-12T18:52:51.280Z,16.87
2019-03-12T18:55:37.710Z,17.43
2019-03-12T18:58:06.574Z,17.00
2019-03-12T19:00:35.959Z,18.00
2019-03-12T19:03:04.596Z,16.63
2019-03-12T19:05:33.143Z,15.03
2019-03-12T19:08:01.745Z,16.13
2019-03-12T19:10:30.479Z,16.20
2019-03-12T19:12:59.069Z,13.17
2019-03-12T19:15:27.750Z,14.87
2019-03-12T19:17:56.402Z,16.83
2019-03-12T19:20:24.860Z,18.32
2019-03-12T19:22:53.386Z,19.03
2019-03-12T19:25:27.597Z,19.10
2019-03-12T19:28:00.086Z,19.10
2019-03-12T19:30:26.458Z,17.37
2019-03-12T19:33:02.701Z,16.17
2019-03-12T19:35:32.258Z,17.70
2019-03-12T19:38:01.918Z,17.10
2019-03-12T19:40:51.290Z,16.20
2019-03-12T19:43:19.945Z,13.77
2019-03-12T19:45:48.638Z,13.03
2019-03-12T19:48:17.369Z,13.40
2019-03-12T19:50:46.019Z,12.13
2019-03-12T19:53:14.698Z,13.27
2019-03-12T19:55:46.396Z,13.67
2019-03-12T19:58:15.255Z,12.27
2019-03-12T20:00:44.122Z,12.70
2019-03-12T20:03:15.347Z,12.53
2019-03-12T20:05:43.201Z,15.87
2019-03-12T20:08:11.833Z,17.57
2019-03-12T20:10:55.529Z,19.70
2019-03-12T20:13:38.742Z,16.63
2019-03-12T20:16:29.641Z,18.43
2019-03-12T20:19:29.945Z,18.67
2019-03-12T20:22:10.291Z,16.23
2019-03-12T20:24:58.228Z,15.20
2019-03-12T20:27:45.348Z,14.60
2019-03-12T20:30:44.113Z,15.43
2019-03-12T20:33:33.990Z,14.83
2019-03-12T20:36:34.252Z,14.73
2019-03-12T20:39:25.386Z,13.87
2019-03-12T20:42:13.522Z,13.20
2019-03-12T20:45:04.566Z,14.27
2019-03-12T20:48:03.542Z,12.40
2019-03-12T20:50:46.899Z,12.13
2019-03-12T20:53:51.887Z,11.00
2019-03-12T20:56:52.115Z,10.70
2019-03-12T20:59:32.076Z,9.30
2019-03-12T21:02:09.536Z,8.77
2019-03-12T21:04:46.807Z,7.53
2019-03-12T21:07:34.470Z,7.73
2019-03-12T21:10:39.283Z,8.20
2019-03-12T21:13:30.548Z,7.47
2019-03-12T21:16:11.029Z,7.33
2019-03-12T21:19:00.788Z,7.70
2019-03-12T21:22:03.726Z,7.63
2019-03-12T21:24:28.441Z,7.40
2019-03-12T21:27:17.886Z,6.97
2019-03-12T21:29:51.510Z,6.80
2019-03-12T21:32:20.201Z,6.20
2019-03-12T21:34:49.043Z,6.00
2019-03-12T21:37:17.803Z,6.93
2019-03-12T21:39:55.280Z,6.83
2019-03-12T21:42:18.273Z,7.33
2019-03-12T21:44:46.941Z,7.47
2019-03-12T21:47:15.474Z,7.57
2019-03-12T21:49:44.142Z,8.40
2019-03-12T21:52:12.923Z,7.50
2019-03-12T21:54:41.454Z,7.80
2019-03-12T21:57:09.971Z,8.17
2019-03-12T21:59:38.558Z,7.70
2019-03-12T22:02:07.077Z,7.80
2019-03-12T22:04:35.515Z,7.60
2019-03-12T22:07:04.144Z,8.23
2019-03-12T22:09:32.584Z,8.87
2019-03-12T22:12:01.027Z,8.37
2019-03-12T22:14:29.698Z,9.70
2019-03-12T22:16:58.717Z,9.97
2019-03-12T22:19:27.156Z,9.40
2019-03-12T22:22:06.323Z,10.23
2019-03-12T22:24:34.849Z,9.47
2019-03-12T22:27:03.297Z,8.87
2019-03-12T22:29:33.912Z,8.53
2019-03-12T22:32:02.429Z,9.57
2019-03-12T22:34:30.957Z,9.00
2019-03-12T22:36:59.660Z,9.33
2019-03-12T22:39:28.313Z,9.33
2019-03-12T22:41:56.807Z,9.13
2019-03-12T22:44:25.428Z,8.70
2019-03-12T22:46:53.866Z,8.43
2019-03-12T22:49:22.380Z,8.47
2019-03-12T22:51:51.964Z,8.65
2019-03-12T22:54:20.412Z,7.67
2019-03-12T22:56:48.867Z,8.10
2019-03-12T22:59:17.464Z,8.63
2019-03-12T23:01:45.971Z,8.10
2019-03-12T23:04:14.477Z,8.13
2019-03-12T23:06:43.034Z,8.10
2019-03-12T23:09:11.476Z,7.43
2019-03-12T23:11:40.069Z,7.23
2019-03-12T23:14:08.608Z,6.57
2019-03-12T23:16:37.033Z,6.43
2019-03-12T23:19:05.756Z,6.53
2019-03-12T23:21:34.344Z,6.17
2019-03-12T23:24:02.809Z,6.43
2019-03-12T23:26:31.324Z,6.20
2019-03-12T23:29:00.794Z,6.00
2019-03-12T23:31:29.315Z,6.40
2019-03-12T23:33:57.872Z,5.97
2019-03-12T23:36:26.389Z,6.67
2019-03-12T23:38:56.826Z,6.17
2019-03-12T23:41:25.338Z,5.90
2019-03-12T23:43:53.848Z,5.87
2019-03-12T23:46:22.361Z,5.60
2019-03-12T23:48:51.002Z,5.40
2019-03-12T23:51:19.514Z,5.40
2019-03-12T23:53:47.957Z,5.30
2019-03-12T23:56:16.610Z,5.30
2019-03-12T23:58:45.059Z,5.03
